createdAt,value
2019-03-09T00:01:13.128Z,59.37
2019-03-09T00:03:42.792Z,59.26
2019-03-09T00:06:13.589Z,58.03
2019-03-09T00:08:43.222Z,58.51
2019-03-09T00:11:13.251Z,58.33
2019-03-09T00:13:42.710Z,58.49
2019-03-09T00:16:12.626Z,58.05
2019-03-09T00:18:42.226Z,57.78
2019-03-09T00:21:12.405Z,57.63
2019-03-09T00:23:43.916Z,57.63
2019-03-09T00:26:15.177Z,57.83
2019-03-09T00:28:46.341Z,58.01
2019-03-09T00:31:17.718Z,57.93
2019-03-09T00:33:47.294Z,57.96
2019-03-09T00:36:16.781Z,56.96
2019-03-09T00:38:47.070Z,56.96
2019-03-09T00:41:16.595Z,56.78
2019-03-09T00:43:46.146Z,56.85
2019-03-09T00:46:15.604Z,56.32
2019-03-09T00:48:45.223Z,56.41
2019-03-09T00:51:14.696Z,56.46
2019-03-09T00:53:44.261Z,56.00
2019-03-09T00:56:14.216Z,55.86
2019-03-09T00:58:44.434Z,55.51
2019-03-09T01:01:14.214Z,55.01
2019-03-09T01:03:43.830Z,54.68
2019-03-09T01:06:13.518Z,54.98
2019-03-09T01:08:42.998Z,54.56
2019-03-09T01:11:12.795Z,54.34
2019-03-09T01:13:42.417Z,54.26
2019-03-09T01:16:12.425Z,54.30
2019-03-09T01:18:41.967Z,53.96
2019-03-09T01:21:11.814Z,54.12
2019-03-09T01:23:41.441Z,54.20
2019-03-09T01:26:11.515Z,54.25
2019-03-09T01:28:41.895Z,54.16
2019-03-09T01:31:11.952Z,53.73
2019-03-09T01:33:41.518Z,54.06
2019-03-09T01:36:11.469Z,53.95
2019-03-09T01:38:41.060Z,53.85
2019-03-09T01:41:11.221Z,54.17
2019-03-09T01:43:40.798Z,53.66
2019-03-09T01:46:10.795Z,53.97
2019-03-09T01:48:40.323Z,53.92
2019-03-09T01:51:10.405Z,54.06
2019-03-09T01:53:39.929Z,54.02
2019-03-09T01:56:09.576Z,53.66
2019-03-09T01:58:39.014Z,53.97
2019-03-09T02:01:08.282Z,54.26
2019-03-09T02:03:37.865Z,54.22
2019-03-09T02:06:07.330Z,54.28
2019-03-09T02:08:36.865Z,54.23
2019-03-09T02:11:06.405Z,54.28
2019-03-09T02:13:35.862Z,54.31
2019-03-09T02:16:05.515Z,54.24
2019-03-09T02:18:35.039Z,54.20
2019-03-09T02:21:04.636Z,54.25
2019-03-09T02:23:33.943Z,54.52
2019-03-09T02:26:03.484Z,54.65
2019-03-09T02:28:32.926Z,54.64
2019-03-09T02:31:02.537Z,54.81
2019-03-09T02:33:32.031Z,55.11
2019-03-09T02:36:01.500Z,54.70
2019-03-09T02:38:32.632Z,54.78
2019-03-09T02:41:02.226Z,54.81
2019-03-09T02:43:31.736Z,54.97
2019-03-09T02:46:01.507Z,55.08
2019-03-09T02:48:30.921Z,54.82
2019-03-09T02:51:00.539Z,54.91
2019-03-09T02:53:29.956Z,55.19
2019-03-09T02:55:59.623Z,55.22
2019-03-09T02:58:29.081Z,55.61
2019-03-09T03:01:00.336Z,56.04
2019-03-09T03:03:29.957Z,56.44
2019-03-09T03:05:59.544Z,56.65
2019-03-09T03:08:29.028Z,56.82
2019-03-09T03:10:58.507Z,57.03
2019-03-09T03:13:28.059Z,56.72
2019-03-09T03:15:57.507Z,56.67
2019-03-09T03:18:26.986Z,57.15
2019-03-09T03:20:56.443Z,56.84
2019-03-09T03:23:26.063Z,56.93
2019-03-09T03:25:55.576Z,57.62
2019-03-09T03:28:25.034Z,58.82
2019-03-09T03:30:54.497Z,59.95
2019-03-09T03:33:24.259Z,61.40
2019-03-09T03:35:53.551Z,61.85
2019-03-09T03:38:23.016Z,62.40
2019-03-09T03:40:52.521Z,62.46
2019-03-09T03:43:22.161Z,62.96
2019-03-09T03:45:51.648Z,62.72
2019-03-09T03:48:22.087Z,62.97
2019-03-09T03:50:51.553Z,62.60
2019-03-09T03:53:21.148Z,62.09
2019-03-09T03:55:50.854Z,62.66
2019-03-09T03:58:20.510Z,62.69
2019-03-09T04:00:50.203Z,63.56
2019-03-09T04:03:19.911Z,63.70
2019-03-09T04:05:49.621Z,64.85
2019-03-09T04:08:19.286Z,64.90
2019-03-09T04:10:49.201Z,65.10
2019-03-09T04:13:18.742Z,65.58
2019-03-09T04:15:48.186Z,65.97
2019-03-09T04:18:17.741Z,66.08
2019-03-09T04:20:47.179Z,66.33
2019-03-09T04:23:16.640Z,65.56
2019-03-09T04:25:46.365Z,65.59
2019-03-09T04:28:15.965Z,65.60
2019-03-09T04:30:45.544Z,65.59
2019-03-09T04:33:15.172Z,66.25
2019-03-09T04:35:44.705Z,66.17
2019-03-09T04:38:14.307Z,65.94
2019-03-09T04:40:43.751Z,66.11
2019-03-09T04:43:13.452Z,66.13
2019-03-09T04:45:42.905Z,66.43
2019-03-09T04:48:13.722Z,66.16
2019-03-09T04:50:43.227Z,66.13
2019-03-09T04:53:12.922Z,66.30
2019-03-09T04:55:42.427Z,66.79
2019-03-09T04:58:12.475Z,67.24
2019-03-09T05:00:41.969Z,66.90
2019-03-09T05:03:12.011Z,67.16
2019-03-09T05:05:41.578Z,67.62
2019-03-09T05:08:14.140Z,67.33
2019-03-09T05:10:47.063Z,67.31
2019-03-09T05:13:20.054Z,67.33
2019-03-09T05:15:49.666Z,67.19
2019-03-09T05:18:19.189Z,66.88
2019-03-09T05:20:48.705Z,66.83
2019-03-09T05:23:18.236Z,67.41
2019-03-09T05:25:47.933Z,67.31
2019-03-09T05:28:17.448Z,66.98
2019-03-09T05:30:47.354Z,67.25
2019-03-09T05:33:16.930Z,67.38
2019-03-09T05:35:46.495Z,67.43
2019-03-09T05:38:16.077Z,67.25
2019-03-09T05:40:45.397Z,67.20
2019-03-09T05:43:14.838Z,67.59
2019-03-09T05:45:45.361Z,67.62
2019-03-09T05:48:14.889Z,67.29
2019-03-09T05:50:44.434Z,67.29
2019-03-09T05:53:16.504Z,67.54
2019-03-09T05:55:46.172Z,67.25
2019-03-09T05:58:15.645Z,67.30
2019-03-09T06:00:44.942Z,67.36
2019-03-09T06:03:14.397Z,67.78
2019-03-09T06:05:46.132Z,67.51
2019-03-09T06:08:15.579Z,68.03
2019-03-09T06:10:45.253Z,68.21
2019-03-09T06:13:14.768Z,68.41
2019-03-09T06:15:44.132Z,68.23
2019-03-09T06:18:13.641Z,68.19
2019-03-09T06:20:43.182Z,68.23
2019-03-09T06:23:13.462Z,68.15
2019-03-09T06:25:42.933Z,68.19
2019-03-09T06:28:12.519Z,67.84
2019-03-09T06:30:42.055Z,68.14
2019-03-09T06:33:14.747Z,68.29
2019-03-09T06:35:45.068Z,68.61
2019-03-09T06:38:16.867Z,68.20
2019-03-09T06:40:46.379Z,68.05
2019-03-09T06:43:15.853Z,67.83
2019-03-09T06:45:45.309Z,67.81
2019-03-09T06:48:14.774Z,67.62
2019-03-09T06:50:44.032Z,67.36
2019-03-09T06:53:13.500Z,67.70
2019-03-09T06:55:42.960Z,67.64
2019-03-09T06:58:13.545Z,67.45
2019-03-09T07:00:43.201Z,67.41
2019-03-09T07:03:13.204Z,66.90
2019-03-09T07:05:42.851Z,66.86
2019-03-09T07:08:12.395Z,66.66
2019-03-09T07:10:41.901Z,66.22
2019-03-09T07:13:11.504Z,66.00
2019-03-09T07:15:41.997Z,65.97
2019-03-09T07:18:13.896Z,66.12
2019-03-09T07:20:43.475Z,65.58
2019-03-09T07:23:13.000Z,64.59
2019-03-09T07:25:42.607Z,64.17
2019-03-09T07:28:12.770Z,63.91
2019-03-09T07:30:42.359Z,64.52
2019-03-09T07:33:11.964Z,64.75
2019-03-09T07:35:41.502Z,62.41
2019-03-09T07:38:11.217Z,58.49
2019-03-09T07:40:41.456Z,56.34
2019-03-09T07:43:11.338Z,55.69
2019-03-09T07:45:41.414Z,56.45
2019-03-09T07:48:11.032Z,55.16
2019-03-09T07:50:40.729Z,52.69
2019-03-09T07:53:10.529Z,53.11
2019-03-09T07:55:40.205Z,54.62
2019-03-09T07:58:10.346Z,56.55
2019-03-09T08:00:39.910Z,57.84
2019-03-09T08:03:09.798Z,60.12
2019-03-09T08:05:39.283Z,61.65
2019-03-09T08:08:10.088Z,62.63
2019-03-09T08:10:39.838Z,63.07
2019-03-09T08:13:09.652Z,63.28
2019-03-09T08:15:39.136Z,63.09
2019-03-09T08:18:08.746Z,63.17
2019-03-09T08:20:38.281Z,63.19
2019-03-09T08:23:08.198Z,63.35
2019-03-09T08:25:37.745Z,62.92
2019-03-09T08:28:07.561Z,61.29
2019-03-09T08:30:37.102Z,60.69
2019-03-09T08:33:06.687Z,61.95
2019-03-09T08:35:36.198Z,61.97
2019-03-09T08:38:05.731Z,62.65
2019-03-09T08:40:35.288Z,63.19
2019-03-09T08:43:04.895Z,63.35
2019-03-09T08:45:34.552Z,63.57
2019-03-09T08:48:04.278Z,63.61
2019-03-09T08:50:33.839Z,63.86
2019-03-09T08:53:03.367Z,63.89
2019-03-09T08:55:32.894Z,63.73
2019-03-09T08:58:02.465Z,63.97
2019-03-09T09:00:33.433Z,63.58
2019-03-09T09:03:02.923Z,63.87
2019-03-09T09:05:32.455Z,63.52
2019-03-09T09:08:03.617Z,63.72
2019-03-09T09:10:32.741Z,63.85
2019-03-09T09:13:02.329Z,63.88
2019-03-09T09:15:31.927Z,64.09
2019-03-09T09:18:01.556Z,63.48
2019-03-09T09:20:31.102Z,63.48
2019-03-09T09:23:01.244Z,63.55
2019-03-09T09:25:36.343Z,63.36
2019-03-09T09:28:08.331Z,63.25
2019-03-09T09:30:43.010Z,63.32
2019-03-09T09:33:11.131Z,62.96
2019-03-09T09:35:40.977Z,63.35
2019-03-09T09:38:10.538Z,63.41
2019-03-09T09:40:40.149Z,62.74
2019-03-09T09:43:09.936Z,62.47
2019-03-09T09:45:39.641Z,61.66
2019-03-09T09:48:09.465Z,61.76
2019-03-09T09:50:39.831Z,61.26
2019-03-09T09:53:09.590Z,60.80
2019-03-09T09:55:41.891Z,60.11
2019-03-09T09:58:11.595Z,59.72
2019-03-09T10:00:41.201Z,59.15
2019-03-09T10:03:10.896Z,59.05
2019-03-09T10:05:40.455Z,58.03
2019-03-09T10:08:10.285Z,57.86
2019-03-09T10:10:39.926Z,57.56
2019-03-09T10:13:09.757Z,57.16
2019-03-09T10:15:39.559Z,57.13
2019-03-09T10:18:08.374Z,57.06
2019-03-09T10:20:37.917Z,57.19
2019-03-09T10:23:07.902Z,58.05
2019-03-09T10:25:37.374Z,57.28
2019-03-09T10:28:06.734Z,57.21
2019-03-09T10:30:36.186Z,57.94
2019-03-09T10:33:05.875Z,58.35
2019-03-09T10:35:35.417Z,58.61
2019-03-09T10:38:04.933Z,58.24
2019-03-09T10:40:33.862Z,58.50
2019-03-09T10:43:03.334Z,58.34
2019-03-09T10:45:32.990Z,58.56
2019-03-09T10:48:02.517Z,58.22
2019-03-09T10:50:32.152Z,57.84
2019-03-09T10:53:01.735Z,57.81
2019-03-09T10:55:33.152Z,58.10
2019-03-09T10:58:02.766Z,58.30
2019-03-09T11:00:34.810Z,58.35
2019-03-09T11:03:04.501Z,58.14
2019-03-09T11:05:34.052Z,58.58
2019-03-09T11:08:03.643Z,58.37
2019-03-09T11:10:33.213Z,58.47
2019-03-09T11:13:03.540Z,57.83
2019-03-09T11:15:33.178Z,57.33
2019-03-09T11:18:02.780Z,57.08
2019-03-09T11:20:32.421Z,57.68
2019-03-09T11:23:01.955Z,57.38
2019-03-09T11:25:31.564Z,57.00
2019-03-09T11:28:04.158Z,55.92
2019-03-09T11:30:33.708Z,55.81
2019-03-09T11:33:03.227Z,54.72
2019-03-09T11:35:33.018Z,54.06
2019-03-09T11:38:02.555Z,54.40
2019-03-09T11:40:32.112Z,54.21
2019-03-09T11:43:01.625Z,54.96
2019-03-09T11:45:31.217Z,55.06
2019-03-09T11:48:00.791Z,55.69
2019-03-09T11:50:30.213Z,56.23
2019-03-09T11:52:59.803Z,56.26
2019-03-09T11:55:29.187Z,56.70
2019-03-09T11:57:58.744Z,56.64
2019-03-09T12:00:30.380Z,56.80
2019-03-09T12:03:00.326Z,56.56
2019-03-09T12:05:29.770Z,56.31
2019-03-09T12:07:59.407Z,56.81
2019-03-09T12:10:28.823Z,56.70
2019-03-09T12:12:58.328Z,56.68
2019-03-09T12:15:27.815Z,56.48
2019-03-09T12:17:57.236Z,56.05
2019-03-09T12:20:28.455Z,55.74
2019-03-09T12:23:01.658Z,55.79
2019-03-09T12:25:31.264Z,56.20
2019-03-09T12:28:00.816Z,55.92
2019-03-09T12:30:30.427Z,55.99
2019-03-09T12:33:00.036Z,56.02
2019-03-09T12:35:34.360Z,56.18
2019-03-09T12:38:03.993Z,56.71
2019-03-09T12:40:33.565Z,56.83
2019-03-09T12:43:02.747Z,56.62
2019-03-09T12:45:32.251Z,57.34
2019-03-09T12:48:01.887Z,57.06
2019-03-09T12:50:31.568Z,56.42
2019-03-09T12:53:01.172Z,56.25
2019-03-09T12:55:30.804Z,56.16
2019-03-09T12:58:00.510Z,55.40
2019-03-09T13:00:30.121Z,55.55
2019-03-09T13:02:59.698Z,55.71
2019-03-09T13:05:29.212Z,55.64
2019-03-09T13:07:58.704Z,56.47
2019-03-09T13:10:28.303Z,56.29
2019-03-09T13:12:57.921Z,56.40
2019-03-09T13:15:27.478Z,56.25
2019-03-09T13:17:57.107Z,56.68
2019-03-09T13:20:26.557Z,56.53
2019-03-09T13:22:56.141Z,57.22
2019-03-09T13:25:25.447Z,57.46
2019-03-09T13:27:54.968Z,57.58
2019-03-09T13:30:24.605Z,57.25
2019-03-09T13:32:54.239Z,58.24
2019-03-09T13:35:23.843Z,58.13
2019-03-09T13:37:53.322Z,57.61
2019-03-09T13:40:22.963Z,56.59
2019-03-09T13:42:52.422Z,56.82
2019-03-09T13:45:21.960Z,56.33
2019-03-09T13:47:51.551Z,56.12
2019-03-09T13:50:21.117Z,56.94
2019-03-09T13:52:50.892Z,56.55
2019-03-09T13:55:20.434Z,57.55
2019-03-09T13:57:49.694Z,57.73
2019-03-09T14:00:19.693Z,58.18
2019-03-09T14:02:49.229Z,57.51
2019-03-09T14:05:18.759Z,57.10
2019-03-09T14:07:48.206Z,57.40
2019-03-09T14:10:18.194Z,58.04
2019-03-09T14:12:47.682Z,57.86
2019-03-09T14:15:17.845Z,57.71
2019-03-09T14:17:47.387Z,57.84
2019-03-09T14:20:17.475Z,58.16
2019-03-09T14:22:47.077Z,58.76
2019-03-09T14:25:16.698Z,59.02
2019-03-09T14:27:46.148Z,58.66
2019-03-09T14:30:18.782Z,59.10
2019-03-09T14:32:49.125Z,59.67
2019-03-09T14:35:18.793Z,60.05
2019-03-09T14:37:48.304Z,60.36
2019-03-09T14:40:17.911Z,60.04
2019-03-09T14:42:47.467Z,60.15
2019-03-09T14:45:18.552Z,59.79
2019-03-09T14:47:48.039Z,60.13
2019-03-09T14:50:17.609Z,60.40
2019-03-09T14:52:47.090Z,59.90
2019-03-09T14:55:16.843Z,59.38
2019-03-09T14:57:46.989Z,58.97
2019-03-09T15:00:17.742Z,57.74
2019-03-09T15:02:47.299Z,56.98
2019-03-09T15:05:16.827Z,57.41
2019-03-09T15:07:47.099Z,57.12
2019-03-09T15:10:17.112Z,57.30
2019-03-09T15:12:46.771Z,58.15
2019-03-09T15:15:17.902Z,58.19
2019-03-09T15:17:47.483Z,58.32
2019-03-09T15:20:18.488Z,58.51
2019-03-09T15:22:48.091Z,57.73
2019-03-09T15:25:18.970Z,57.27
2019-03-09T15:27:48.883Z,56.74
2019-03-09T15:30:19.374Z,57.10
2019-03-09T15:32:48.918Z,57.38
2019-03-09T15:35:18.735Z,57.79
2019-03-09T15:37:48.404Z,57.44
2019-03-09T15:40:18.106Z,57.72
2019-03-09T15:42:47.651Z,57.32
2019-03-09T15:45:19.045Z,57.01
2019-03-09T15:47:48.671Z,56.67
2019-03-09T15:50:19.461Z,56.34
2019-03-09T15:52:49.143Z,56.17
2019-03-09T15:55:18.738Z,56.02
2019-03-09T15:57:48.343Z,55.57
2019-03-09T16:00:20.626Z,55.49
2019-03-09T16:02:50.298Z,55.37
2019-03-09T16:05:20.004Z,55.37
2019-03-09T16:07:49.589Z,55.25
2019-03-09T16:10:20.304Z,54.87
2019-03-09T16:12:50.063Z,54.41
2019-03-09T16:15:19.795Z,54.03
2019-03-09T16:17:49.490Z,53.81
2019-03-09T16:20:20.672Z,52.97
2019-03-09T16:22:50.690Z,50.00
2019-03-09T16:25:20.271Z,49.21
2019-03-09T16:27:49.798Z,49.10
2019-03-09T16:30:21.686Z,48.50
2019-03-09T16:32:51.257Z,48.90
2019-03-09T16:35:20.986Z,48.75
2019-03-09T16:38:12.033Z,48.45
2019-03-09T16:40:41.655Z,48.89
2019-03-09T16:43:11.248Z,49.74
2019-03-09T16:45:40.955Z,49.76
2019-03-09T16:48:10.612Z,48.83
2019-03-09T16:50:40.126Z,48.73
2019-03-09T16:53:10.049Z,48.03
2019-03-09T16:55:39.806Z,48.76
2019-03-09T16:58:09.837Z,48.67
2019-03-09T17:00:39.529Z,48.61
2019-03-09T17:03:09.242Z,48.41
2019-03-09T17:05:38.789Z,48.43
2019-03-09T17:08:08.604Z,48.17
2019-03-09T17:10:39.054Z,48.30
2019-03-09T17:13:08.701Z,48.01
2019-03-09T17:15:38.134Z,48.28
2019-03-09T17:18:07.808Z,47.82
2019-03-09T17:20:37.662Z,47.18
2019-03-09T17:23:07.517Z,46.93
2019-03-09T17:25:37.071Z,47.11
2019-03-09T17:28:06.874Z,47.50
2019-03-09T17:30:39.129Z,47.57
2019-03-09T17:33:11.087Z,47.66
2019-03-09T17:35:40.534Z,47.57
2019-03-09T17:38:10.262Z,47.68
2019-03-09T17:40:39.911Z,47.92
2019-03-09T17:43:09.654Z,47.88
2019-03-09T17:45:39.206Z,48.02
2019-03-09T17:48:09.021Z,48.28
2019-03-09T17:50:38.525Z,48.18
2019-03-09T17:53:08.225Z,48.39
2019-03-09T17:55:37.637Z,48.53
2019-03-09T17:58:07.189Z,48.26
2019-03-09T18:00:42.397Z,48.40
2019-03-09T18:03:09.694Z,48.60
2019-03-09T18:05:39.191Z,48.39
2019-03-09T18:08:08.730Z,48.20
2019-03-09T18:10:40.663Z,48.10
2019-03-09T18:13:10.698Z,48.34
2019-03-09T18:15:40.109Z,48.52
2019-03-09T18:18:09.983Z,48.76
2019-03-09T18:20:39.594Z,48.83
2019-03-09T18:23:09.313Z,48.75
2019-03-09T18:25:38.918Z,49.13
2019-03-09T18:28:08.408Z,48.80
2019-03-09T18:30:37.942Z,48.51
2019-03-09T18:33:07.558Z,48.43
2019-03-09T18:35:36.968Z,48.17
2019-03-09T18:38:06.457Z,49.93
2019-03-09T18:40:35.991Z,56.34
2019-03-09T18:43:05.529Z,58.84
2019-03-09T18:45:35.028Z,60.99
2019-03-09T18:48:04.603Z,61.65
2019-03-09T18:50:34.278Z,63.01
2019-03-09T18:53:03.824Z,64.28
2019-03-09T18:55:33.444Z,64.30
2019-03-09T18:58:03.057Z,65.10
2019-03-09T19:00:32.658Z,65.35
2019-03-09T19:03:02.591Z,65.75
2019-03-09T19:05:32.107Z,65.64
2019-03-09T19:08:01.640Z,65.80
2019-03-09T19:10:31.083Z,66.35
2019-03-09T19:13:00.658Z,66.32
2019-03-09T19:15:30.184Z,66.63
2019-03-09T19:17:59.938Z,65.84
2019-03-09T19:20:29.507Z,66.36
2019-03-09T19:22:58.804Z,66.17
2019-03-09T19:25:28.423Z,65.24
2019-03-09T19:27:57.894Z,65.76
2019-03-09T19:30:27.416Z,65.63
2019-03-09T19:33:00.650Z,64.98
2019-03-09T19:35:28.177Z,65.79
2019-03-09T19:37:57.699Z,65.16
2019-03-09T19:40:25.406Z,64.70
2019-03-09T19:42:55.420Z,64.64
2019-03-09T19:45:24.908Z,64.95
2019-03-09T19:47:54.356Z,65.09
2019-03-09T19:50:26.309Z,64.90
2019-03-09T19:52:55.746Z,65.46
2019-03-09T19:55:25.228Z,65.66
2019-03-09T19:57:54.619Z,65.02
2019-03-09T20:00:24.092Z,65.07
2019-03-09T20:02:53.571Z,64.61
2019-03-09T20:05:23.113Z,64.58
2019-03-09T20:07:52.710Z,64.87
2019-03-09T20:10:23.923Z,64.18
2019-03-09T20:12:53.418Z,64.38
2019-03-09T20:15:23.177Z,64.35
2019-03-09T20:17:52.691Z,64.81
2019-03-09T20:20:22.329Z,65.25
2019-03-09T20:22:51.854Z,65.43
2019-03-09T20:25:21.475Z,65.69
2019-03-09T20:27:51.070Z,65.66
2019-03-09T20:30:22.396Z,65.82
2019-03-09T20:32:51.985Z,65.92
2019-03-09T20:35:21.530Z,65.34
2019-03-09T20:37:51.138Z,66.03
2019-03-09T20:40:20.748Z,66.03
2019-03-09T20:42:50.324Z,67.28
2019-03-09T20:45:21.829Z,66.42
2019-03-09T20:47:53.123Z,66.09
2019-03-09T20:50:23.548Z,66.48
2019-03-09T20:52:53.162Z,66.65
2019-03-09T20:55:22.759Z,66.53
2019-03-09T20:57:52.244Z,66.66
2019-03-09T21:00:22.749Z,66.77
2019-03-09T21:02:52.296Z,67.64
2019-03-09T21:05:22.119Z,68.04
2019-03-09T21:07:51.763Z,67.77
2019-03-09T21:10:21.664Z,67.94
2019-03-09T21:12:54.279Z,67.94
2019-03-09T21:15:23.721Z,68.48
2019-03-09T21:17:53.459Z,67.77
2019-03-09T21:20:22.932Z,68.27
2019-03-09T21:22:52.459Z,67.86
2019-03-09T21:25:22.064Z,67.22
2019-03-09T21:27:51.683Z,67.78
2019-03-09T21:30:21.295Z,68.30
2019-03-09T21:32:50.932Z,68.24
2019-03-09T21:35:20.535Z,68.24
2019-03-09T21:37:50.199Z,68.21
2019-03-09T21:40:19.801Z,68.92
2019-03-09T21:42:49.462Z,69.58
2019-03-09T21:45:18.984Z,69.15
2019-03-09T21:47:48.471Z,69.34
2019-03-09T21:50:18.461Z,69.87
2019-03-09T21:52:47.995Z,70.05
2019-03-09T21:55:17.894Z,70.47
2019-03-09T21:57:47.511Z,70.18
2019-03-09T22:00:19.239Z,70.05
2019-03-09T22:02:50.371Z,69.73
2019-03-09T22:05:20.320Z,69.82
2019-03-09T22:07:49.963Z,68.90
2019-03-09T22:10:19.667Z,69.28
2019-03-09T22:12:49.226Z,69.17
2019-03-09T22:15:19.044Z,69.62
2019-03-09T22:17:48.608Z,70.09
2019-03-09T22:20:20.364Z,70.37
2019-03-09T22:22:49.145Z,70.47
2019-03-09T22:25:18.790Z,70.52
2019-03-09T22:27:48.248Z,70.51
2019-03-09T22:30:20.101Z,69.97
2019-03-09T22:32:49.780Z,68.92
2019-03-09T22:35:19.642Z,69.10
2019-03-09T22:37:49.042Z,69.18
2019-03-09T22:40:19.861Z,69.08
2019-03-09T22:42:49.482Z,68.79
2019-03-09T22:45:18.967Z,69.02
2019-03-09T22:47:48.213Z,68.54
2019-03-09T22:50:20.032Z,68.75
2019-03-09T22:52:49.586Z,68.55
2019-03-09T22:55:19.205Z,68.96
2019-03-09T22:57:48.669Z,68.75
2019-03-09T23:00:20.561Z,68.52
2019-03-09T23:02:50.188Z,69.68
2019-03-09T23:05:19.718Z,69.07
2019-03-09T23:07:49.233Z,68.76
2019-03-09T23:10:21.303Z,68.14
2019-03-09T23:12:50.942Z,66.67
2019-03-09T23:15:20.603Z,67.00
2019-03-09T23:17:50.071Z,67.36
2019-03-09T23:20:19.672Z,67.32
2019-03-09T23:22:49.232Z,67.88
2019-03-09T23:25:18.764Z,66.97
2019-03-09T23:27:48.272Z,66.73
2019-03-09T23:30:19.110Z,66.47
2019-03-09T23:32:48.760Z,65.85
2019-03-09T23:35:18.280Z,65.28
2019-03-09T23:37:48.026Z,65.38
2019-03-09T23:40:19.935Z,65.68
2019-03-09T23:42:50.610Z,63.97
2019-03-09T23:45:22.646Z,64.51
2019-03-09T23:47:52.474Z,63.93
2019-03-09T23:50:22.077Z,61.86
2019-03-09T23:52:51.705Z,61.81
2019-03-09T23:55:23.012Z,61.18
2019-03-09T23:57:52.901Z,61.19
